createdAt,value
2023-03-08T00:00:59.057Z,17.33
2023-03-08T00:06:05.135Z,17.31
2023-03-08T00:11:08.803Z,17.30
2023-03-08T00:16:13.686Z,17.31
2023-03-08T00:21:18.002Z,17.31
2023-03-08T00:26:20.056Z,17.28
2023-03-08T00:31:22.133Z,17.28
2023-03-08T00:36:24.130Z,17.30
2023-03-08T00:41:26.356Z,17.28
2023-03-08T00:46:28.380Z,17.28
2023-03-08T00:51:30.622Z,17.25
2023-03-08T00:56:32.510Z,17.32
2023-03-08T01:01:34.989Z,17.27
2023-03-08T01:06:37.065Z,17.26
2023-03-08T01:11:39.048Z,17.25
2023-03-08T01:16:42.167Z,17.25
2023-03-08T01:21:44.123Z,17.23
2023-03-08T01:26:46.131Z,17.23
2023-03-08T01:31:47.997Z,17.23
2023-03-08T01:36:49.758Z,17.20
2023-03-08T01:41:51.730Z,17.27
2023-03-08T01:46:53.754Z,17.24
2023-03-08T01:51:55.899Z,17.23
2023-03-08T01:57:03.579Z,17.26
2023-03-08T02:02:07.072Z,17.24
2023-03-08T02:07:08.889Z,17.23
2023-03-08T02:12:13.646Z,17.25
2023-03-08T02:17:15.610Z,17.27
2023-03-08T02:22:18.061Z,17.21
2023-03-08T02:27:26.399Z,17.21
2023-03-08T02:32:28.245Z,17.23
2023-03-08T02:37:32.002Z,17.22
2023-03-08T02:42:34.135Z,17.22
2023-03-08T02:47:36.130Z,17.22
2023-03-08T02:52:38.148Z,17.19
2023-03-08T02:57:39.956Z,17.21
2023-03-08T03:02:41.863Z,17.22
2023-03-08T03:07:43.759Z,17.25
2023-03-08T03:12:45.919Z,17.22
2023-03-08T03:17:47.897Z,17.25
2023-03-08T03:22:49.866Z,17.21
2023-03-08T03:27:51.822Z,17.19
2023-03-08T03:32:53.751Z,17.17
2023-03-08T03:37:55.649Z,17.22
2023-03-08T03:42:57.646Z,17.19
2023-03-08T03:47:59.636Z,17.15
2023-03-08T03:53:01.626Z,17.17
2023-03-08T03:58:03.536Z,17.16
2023-03-08T04:03:05.611Z,17.16
2023-03-08T04:08:09.136Z,17.17
2023-03-08T04:13:13.948Z,17.18
2023-03-08T04:18:16.122Z,17.21
2023-03-08T04:23:18.040Z,17.16
2023-03-08T04:28:20.432Z,17.14
2023-03-08T04:33:22.523Z,17.16
2023-03-08T04:38:24.316Z,17.16
2023-03-08T04:43:26.386Z,17.16
2023-03-08T04:48:29.058Z,17.17
2023-03-08T04:53:32.207Z,17.18
2023-03-08T04:58:34.322Z,17.15
2023-03-08T05:03:36.102Z,17.18
2023-03-08T05:08:38.373Z,17.17
2023-03-08T05:13:40.641Z,17.15
2023-03-08T05:18:42.795Z,17.14
2023-03-08T05:23:45.160Z,17.10
2023-03-08T05:28:46.906Z,17.18
2023-03-08T05:33:51.303Z,17.15
2023-03-08T05:38:54.980Z,17.13
2023-03-08T05:43:58.776Z,17.18
2023-03-08T05:49:00.758Z,17.11
2023-03-08T05:54:02.803Z,17.16
2023-03-08T05:59:04.740Z,17.15
2023-03-08T06:04:06.761Z,17.14
2023-03-08T06:09:09.033Z,17.13
2023-03-08T06:14:13.079Z,17.11
2023-03-08T06:19:15.990Z,17.13
2023-03-08T06:24:17.884Z,17.11
2023-03-08T06:29:19.777Z,17.14
2023-03-08T06:34:21.896Z,17.14
2023-03-08T06:39:24.206Z,17.10
2023-03-08T06:44:26.165Z,17.10
2023-03-08T06:49:28.165Z,17.10
2023-03-08T06:54:30.216Z,17.07
2023-03-08T06:59:32.100Z,17.09
2023-03-08T07:04:34.103Z,17.04
2023-03-08T07:09:36.297Z,17.11
2023-03-08T07:14:38.287Z,17.09
2023-03-08T07:19:40.150Z,17.06
2023-03-08T07:24:42.154Z,17.07
2023-03-08T07:29:44.282Z,17.06
2023-03-08T07:34:46.188Z,17.03
2023-03-08T07:39:48.345Z,16.99
2023-03-08T07:44:50.177Z,16.97
2023-03-08T07:49:51.980Z,17.05
2023-03-08T07:54:53.974Z,17.07
2023-03-08T07:59:55.842Z,17.06
2023-03-08T08:04:57.808Z,17.04
2023-03-08T08:09:59.759Z,17.07
2023-03-08T08:15:01.796Z,17.07
2023-03-08T08:20:05.504Z,17.09
2023-03-08T08:25:08.570Z,17.06
2023-03-08T08:30:13.166Z,17.07
2023-03-08T08:35:15.585Z,17.07
2023-03-08T08:40:17.701Z,17.05
2023-03-08T08:45:19.580Z,17.08
2023-03-08T08:50:21.451Z,17.09
2023-03-08T08:55:23.218Z,17.06
2023-03-08T09:00:25.176Z,17.05
2023-03-08T09:05:30.100Z,16.99
2023-03-08T09:10:36.385Z,16.99
2023-03-08T09:15:38.614Z,16.97
2023-03-08T09:20:40.741Z,16.97
2023-03-08T09:25:42.434Z,17.04
2023-03-08T09:30:44.446Z,17.05
2023-03-08T09:35:58.830Z,17.04
2023-03-08T09:41:26.166Z,17.09
2023-03-08T09:46:34.284Z,17.06
2023-03-08T09:51:41.207Z,17.05
2023-03-08T09:56:47.488Z,17.07
2023-03-08T10:01:57.294Z,17.10
2023-03-08T10:07:18.513Z,17.09
2023-03-08T10:12:30.203Z,17.14
2023-03-08T10:17:42.838Z,16.85
2023-03-08T10:22:47.092Z,17.09
2023-03-08T10:27:53.793Z,17.16
2023-03-08T10:33:00.181Z,17.18
2023-03-08T10:38:02.531Z,17.19
2023-03-08T10:43:07.200Z,17.19
2023-03-08T10:48:22.398Z,17.09
2023-03-08T10:53:24.684Z,17.06
2023-03-08T10:58:40.579Z,17.10
2023-03-08T11:03:42.928Z,17.27
2023-03-08T11:08:56.626Z,17.30
2023-03-08T11:14:00.117Z,17.06
2023-03-08T11:19:11.663Z,17.16
2023-03-08T11:24:33.806Z,17.32
2023-03-08T11:29:50.656Z,17.51
2023-03-08T11:35:25.711Z,17.41
2023-03-08T11:40:42.790Z,17.37
2023-03-08T11:45:47.530Z,17.23
2023-03-08T11:51:10.312Z,17.20
2023-03-08T11:56:38.262Z,17.15
2023-03-08T12:02:05.984Z,17.18
2023-03-08T12:07:37.073Z,17.15
2023-03-08T12:13:14.165Z,17.38
2023-03-08T12:18:18.553Z,17.17
2023-03-08T12:23:39.940Z,16.96
2023-03-08T12:28:52.069Z,17.01
2023-03-08T12:33:54.387Z,17.11
2023-03-08T12:39:08.463Z,17.35
2023-03-08T12:44:28.053Z,17.42
2023-03-08T12:49:36.451Z,17.44
2023-03-08T12:54:38.972Z,17.24
2023-03-08T12:59:41.763Z,17.21
2023-03-08T13:04:44.270Z,17.19
2023-03-08T13:10:24.050Z,17.15
2023-03-08T13:15:26.523Z,17.14
2023-03-08T13:20:34.613Z,17.13
2023-03-08T13:25:36.701Z,17.14
2023-03-08T13:30:42.721Z,17.11
2023-03-08T13:35:55.201Z,17.10
2023-03-08T13:40:59.001Z,17.08
2023-03-08T13:46:04.210Z,17.10
2023-03-08T13:51:06.654Z,17.05
2023-03-08T13:56:08.736Z,17.04
2023-03-08T14:01:15.585Z,17.06
2023-03-08T14:06:34.147Z,17.02
2023-03-08T14:11:40.033Z,17.05
2023-03-08T14:16:42.290Z,17.03
2023-03-08T14:21:50.506Z,17.02
2023-03-08T14:27:21.817Z,16.96
2023-03-08T14:32:32.486Z,17.00
2023-03-08T14:37:38.275Z,16.97
2023-03-08T14:42:49.737Z,16.98
2023-03-08T14:47:55.859Z,16.97
2023-03-08T14:53:00.132Z,16.96
2023-03-08T14:58:14.059Z,16.97
2023-03-08T15:03:16.417Z,16.99
2023-03-08T15:08:19.685Z,16.97
2023-03-08T15:13:23.744Z,16.98
2023-03-08T15:18:26.017Z,16.99
2023-03-08T15:23:31.418Z,17.14
2023-03-08T15:28:34.686Z,17.14
2023-03-08T15:33:37.722Z,17.11
2023-03-08T15:38:39.529Z,17.11
2023-03-08T15:43:42.656Z,17.00
2023-03-08T15:48:45.812Z,17.01
2023-03-08T15:53:49.416Z,17.03
2023-03-08T15:58:52.102Z,17.03
2023-03-08T16:03:57.750Z,17.03
2023-03-08T16:08:59.665Z,16.99
2023-03-08T16:14:01.370Z,17.03
2023-03-08T16:19:03.453Z,17.03
2023-03-08T16:24:05.510Z,17.01
2023-03-08T16:29:07.923Z,16.98
2023-03-08T16:34:11.800Z,17.01
2023-03-08T16:39:13.722Z,17.02
2023-03-08T16:44:24.902Z,16.97
2023-03-08T16:49:28.731Z,16.97
2023-03-08T16:54:31.280Z,16.95
2023-03-08T16:59:33.217Z,16.97
2023-03-08T17:04:35.298Z,16.98
2023-03-08T17:09:38.572Z,16.94
2023-03-08T17:14:41.449Z,16.97
2023-03-08T17:19:43.337Z,16.95
2023-03-08T17:24:45.177Z,16.95
2023-03-08T17:29:47.118Z,16.92
2023-03-08T17:34:52.087Z,16.93
2023-03-08T17:39:53.852Z,16.93
2023-03-08T17:44:55.900Z,16.95
2023-03-08T17:49:57.622Z,16.99
2023-03-08T17:55:00.118Z,16.97
2023-03-08T18:00:02.389Z,16.94
2023-03-08T18:05:05.691Z,17.01
2023-03-08T18:10:07.745Z,17.07
2023-03-08T18:15:10.353Z,17.01
2023-03-08T18:20:12.727Z,17.00
2023-03-08T18:25:14.654Z,17.04
2023-03-08T18:30:16.994Z,17.00
2023-03-08T18:35:19.203Z,16.99
2023-03-08T18:40:21.503Z,16.98
2023-03-08T18:45:23.690Z,16.93
2023-03-08T18:50:26.088Z,16.97
2023-03-08T18:55:27.958Z,16.96
2023-03-08T19:00:29.768Z,17.01
2023-03-08T19:05:31.558Z,17.04
2023-03-08T19:10:33.783Z,17.11
2023-03-08T19:15:40.465Z,17.15
2023-03-08T19:20:43.096Z,17.17
2023-03-08T19:26:03.419Z,17.17
2023-03-08T19:31:05.780Z,17.24
2023-03-08T19:36:09.623Z,17.18
2023-03-08T19:41:12.097Z,17.15
2023-03-08T19:46:18.039Z,17.19
2023-03-08T19:51:20.865Z,17.14
2023-03-08T19:56:24.662Z,17.13
2023-03-08T20:01:27.387Z,17.14
2023-03-08T20:06:34.789Z,17.11
2023-03-08T20:11:36.990Z,17.09
2023-03-08T20:16:39.096Z,17.08
2023-03-08T20:21:41.069Z,16.73
2023-03-08T20:26:43.046Z,16.84
2023-03-08T20:31:46.069Z,17.00
2023-03-08T20:36:48.736Z,16.94
2023-03-08T20:41:50.874Z,16.89
2023-03-08T20:46:52.818Z,16.92
2023-03-08T20:51:54.762Z,17.07
2023-03-08T20:56:57.194Z,16.64
2023-03-08T21:01:59.331Z,16.60
2023-03-08T21:07:01.471Z,16.57
2023-03-08T21:12:04.866Z,16.66
2023-03-08T21:17:06.925Z,16.62
2023-03-08T21:22:11.022Z,16.65
2023-03-08T21:27:13.275Z,16.52
2023-03-08T21:32:15.430Z,16.61
2023-03-08T21:37:17.610Z,16.71
2023-03-08T21:42:19.473Z,16.70
2023-03-08T21:47:21.139Z,16.77
2023-03-08T21:52:23.069Z,16.90
2023-03-08T21:57:25.127Z,17.03
2023-03-08T22:02:27.030Z,17.03
2023-03-08T22:07:28.877Z,17.03
2023-03-08T22:12:30.833Z,16.98
2023-03-08T22:17:32.846Z,17.02
2023-03-08T22:22:34.647Z,16.98
2023-03-08T22:27:36.737Z,16.98
2023-03-08T22:32:40.474Z,17.00
2023-03-08T22:37:43.974Z,17.00
2023-03-08T22:42:46.496Z,16.96
2023-03-08T22:47:48.316Z,16.95
2023-03-08T22:52:50.208Z,16.94
2023-03-08T22:57:52.267Z,16.95
2023-03-08T23:02:57.880Z,16.95
2023-03-08T23:07:59.931Z,16.91
2023-03-08T23:13:02.791Z,16.94
2023-03-08T23:18:04.980Z,16.94
2023-03-08T23:23:07.339Z,16.95
2023-03-08T23:28:09.393Z,16.90
2023-03-08T23:33:11.374Z,16.98
2023-03-08T23:38:13.194Z,16.91
2023-03-08T23:43:15.119Z,16.93
2023-03-08T23:48:17.070Z,16.99
2023-03-08T23:53:19.073Z,16.94
2023-03-08T23:58:21.124Z,16.93
